首页
METAR-TAF:

METAR-TAF

机场 :

維也納新城, 奥地利

纬度: 47-50-36N, 经度: 016-15-29E, 海拔: 272米

当前天气观测

该预报发布于1小时和18分钟前的06:00 UTC
风速5节,风向东转东南
温度
气压
能見度: 5000
多云层高于1500英尺
雨, 轻雾

METAR: LOAN 200600Z 12005KT 5000 RA BR FEW004ST SCT008ST BKN015

时间: 09:18 (07:18 UTC)

预报

该预报发布于1小时和18分钟前的06:00 UTC
预报有效从20日的 06点(UTC)到 20日的 15点(UTC)
风速5节,风向东转东南
能見度: 4000
少量云层高于400英尺
散云层高于800英尺
多云层高于1200英尺
成为
从 20日的 07点(UTC)到 20日的 09点(UTC)
风速10节,风向
能见度10公里或以上
少量云层高于800英尺
散云层高于3000英尺
多云层高于5000英尺
短暂存在
从 20日的 10点(UTC)到 20日的 15点(UTC)
能見度: 6000
少量云层高于2000英尺, 塔状积云.
多云层高于4000英尺
阵雨
几率 30% :
短暂存在
从 20日的 11点(UTC)到 20日的 15点(UTC)
风速15节,风向,有时为25节阵风
能見度: 4000
少量云层高于2000英尺, 积雨云.
多云层高于3000英尺
雷暴, 雨

TAF: LOAN 200600Z 2006/2015 12005KT 4000 RA FEW004 SCT008 BKN012 BECMG 2007/2009 18010KT 9999 NSW FEW008 SCT030 BKN050 TEMPO 2010/2015 6000 SHRA FEW020TCU BKN040 PROB30 TEMPO 2011/2015 17015G25KT 4000 TSRA FEW020CB BKN030

超过4000个机场的气象观测和天气预报(METAR&TAF报告)。

可查询的气象台以黄色和红色小点在地图上表示。

将鼠标移到小点上方,可查看气象台名称。

然后点击查看天气观测和预报。

如需切换地图:点击带黑十字的绿色按钮放大地图;点击带横线的绿色按钮缩小地图;或者点击绿色箭头查看邻近地区的地图。


METAR-TAF: